sensor_id;sensor_type;location;lat;lon;timestamp;temperature;humidity
70456;DHT22;57916;51.996;5.180;2023-05-07T00:02:01;19.30;69.80
70456;DHT22;57916;51.996;5.180;2023-05-07T00:04:27;19.20;69.90
70456;DHT22;57916;51.996;5.180;2023-05-07T00:06:55;19.10;70.40
70456;DHT22;57916;51.996;5.180;2023-05-07T00:09:22;19.00;70.70
70456;DHT22;57916;51.996;5.180;2023-05-07T00:11:49;19.00;70.80
70456;DHT22;57916;51.996;5.180;2023-05-07T00:14:16;19.00;71.80
70456;DHT22;57916;51.996;5.180;2023-05-07T00:16:43;18.90;71.20
70456;DHT22;57916;51.996;5.180;2023-05-07T00:19:10;18.80;71.40
70456;DHT22;57916;51.996;5.180;2023-05-07T00:21:37;18.70;71.80
70456;DHT22;57916;51.996;5.180;2023-05-07T00:24:04;18.60;72.40
70456;DHT22;57916;51.996;5.180;2023-05-07T00:26:31;18.60;72.50
70456;DHT22;57916;51.996;5.180;2023-05-07T00:28:58;18.60;72.50
70456;DHT22;57916;51.996;5.180;2023-05-07T00:31:25;18.60;72.60
70456;DHT22;57916;51.996;5.180;2023-05-07T00:33:52;18.60;72.70
70456;DHT22;57916;51.996;5.180;2023-05-07T00:36:19;18.60;72.90
70456;DHT22;57916;51.996;5.180;2023-05-07T00:38:46;18.60;73.10
70456;DHT22;57916;51.996;5.180;2023-05-07T00:41:13;18.60;73.20
70456;DHT22;57916;51.996;5.180;2023-05-07T00:43:40;18.60;73.30
70456;DHT22;57916;51.996;5.180;2023-05-07T00:46:07;18.60;73.20
70456;DHT22;57916;51.996;5.180;2023-05-07T00:48:34;18.60;73.30
70456;DHT22;57916;51.996;5.180;2023-05-07T00:51:01;18.60;73.30
70456;DHT22;57916;51.996;5.180;2023-05-07T00:53:28;18.60;73.20
70456;DHT22;57916;51.996;5.180;2023-05-07T00:55:55;18.70;73.30
70456;DHT22;57916;51.996;5.180;2023-05-07T00:58:23;18.70;73.00
70456;DHT22;57916;51.996;5.180;2023-05-07T01:00:51;18.70;72.90
70456;DHT22;57916;51.996;5.180;2023-05-07T01:03:18;18.70;72.90
70456;DHT22;57916;51.996;5.180;2023-05-07T01:05:46;18.80;73.00
70456;DHT22;57916;51.996;5.180;2023-05-07T01:08:15;18.80;72.70
70456;DHT22;57916;51.996;5.180;2023-05-07T01:10:46;18.80;72.60
70456;DHT22;57916;51.996;5.180;2023-05-07T01:13:13;18.90;72.70
70456;DHT22;57916;51.996;5.180;2023-05-07T01:15:42;18.90;72.60
70456;DHT22;57916;51.996;5.180;2023-05-07T01:18:09;18.90;72.60
70456;DHT22;57916;51.996;5.180;2023-05-07T01:20:36;19.00;72.40
70456;DHT22;57916;51.996;5.180;2023-05-07T01:23:04;19.10;72.20
70456;DHT22;57916;51.996;5.180;2023-05-07T01:25:32;19.10;72.00
70456;DHT22;57916;51.996;5.180;2023-05-07T01:28:00;19.10;71.90
70456;DHT22;57916;51.996;5.180;2023-05-07T01:30:33;19.20;71.80
70456;DHT22;57916;51.996;5.180;2023-05-07T01:33:11;19.30;71.50
70456;DHT22;57916;51.996;5.180;2023-05-07T01:35:45;19.40;71.40
70456;DHT22;57916;51.996;5.180;2023-05-07T01:38:14;19.40;71.40
70456;DHT22;57916;51.996;5.180;2023-05-07T01:40:41;19.50;71.30
70456;DHT22;57916;51.996;5.180;2023-05-07T01:43:09;19.50;71.10
70456;DHT22;57916;51.996;5.180;2023-05-07T01:45:38;19.60;70.80
70456;DHT22;57916;51.996;5.180;2023-05-07T01:48:06;19.60;70.40
70456;DHT22;57916;51.996;5.180;2023-05-07T01:50:34;19.60;70.20
70456;DHT22;57916;51.996;5.180;2023-05-07T01:53:01;19.60;70.10
70456;DHT22;57916;51.996;5.180;2023-05-07T01:55:29;19.60;70.30
70456;DHT22;57916;51.996;5.180;2023-05-07T01:57:56;19.60;70.40
70456;DHT22;57916;51.996;5.180;2023-05-07T02:00:23;19.60;70.40
70456;DHT22;57916;51.996;5.180;2023-05-07T02:02:50;19.60;70.30
70456;DHT22;57916;51.996;5.180;2023-05-07T02:05:31;19.60;70.30
70456;DHT22;57916;51.996;5.180;2023-05-07T02:08:07;19.50;70.50
70456;DHT22;57916;51.996;5.180;2023-05-07T02:10:34;19.50;70.50
70456;DHT22;57916;51.996;5.180;2023-05-07T02:13:05;19.50;70.60
70456;DHT22;57916;51.996;5.180;2023-05-07T02:15:32;19.40;70.70
70456;DHT22;57916;51.996;5.180;2023-05-07T02:18:07;19.40;70.80
70456;DHT22;57916;51.996;5.180;2023-05-07T02:20:35;19.40;70.90
70456;DHT22;57916;51.996;5.180;2023-05-07T02:23:02;19.30;71.00
70456;DHT22;57916;51.996;5.180;2023-05-07T02:25:29;19.30;70.80
70456;DHT22;57916;51.996;5.180;2023-05-07T02:27:57;19.40;70.80
70456;DHT22;57916;51.996;5.180;2023-05-07T02:30:36;19.30;70.80
70456;DHT22;57916;51.996;5.180;2023-05-07T02:33:03;19.30;70.70
70456;DHT22;57916;51.996;5.180;2023-05-07T02:35:30;19.30;70.70
70456;DHT22;57916;51.996;5.180;2023-05-07T02:37:57;19.30;70.60
70456;DHT22;57916;51.996;5.180;2023-05-07T02:40:25;19.40;70.50
70456;DHT22;57916;51.996;5.180;2023-05-07T02:42:52;19.30;70.40
70456;DHT22;57916;51.996;5.180;2023-05-07T02:45:19;19.30;70.50
70456;DHT22;57916;51.996;5.180;2023-05-07T02:47:48;19.20;70.70
70456;DHT22;57916;51.996;5.180;2023-05-07T02:50:15;19.20;71.10
70456;DHT22;57916;51.996;5.180;2023-05-07T02:52:42;19.10;71.30
70456;DHT22;57916;51.996;5.180;2023-05-07T02:55:09;19.10;71.20
70456;DHT22;57916;51.996;5.180;2023-05-07T02:57:36;19.10;71.30
70456;DHT22;57916;51.996;5.180;2023-05-07T03:00:15;19.10;71.50
70456;DHT22;57916;51.996;5.180;2023-05-07T03:02:49;19.00;71.50
70456;DHT22;57916;51.996;5.180;2023-05-07T03:05:16;19.00;71.60
70456;DHT22;57916;51.996;5.180;2023-05-07T03:07:44;19.00;71.60
70456;DHT22;57916;51.996;5.180;2023-05-07T03:10:13;19.00;71.70
70456;DHT22;57916;51.996;5.180;2023-05-07T03:12:40;19.00;71.60
70456;DHT22;57916;51.996;5.180;2023-05-07T03:15:09;18.90;71.60
70456;DHT22;57916;51.996;5.180;2023-05-07T03:17:37;18.90;71.50
70456;DHT22;57916;51.996;5.180;2023-05-07T03:20:04;18.90;71.60
70456;DHT22;57916;51.996;5.180;2023-05-07T03:22:32;18.80;71.40
70456;DHT22;57916;51.996;5.180;2023-05-07T03:24:59;18.80;71.80
70456;DHT22;57916;51.996;5.180;2023-05-07T03:27:26;18.80;71.70
70456;DHT22;57916;51.996;5.180;2023-05-07T03:29:53;18.70;71.60
70456;DHT22;57916;51.996;5.180;2023-05-07T03:32:20;18.70;71.80
70456;DHT22;57916;51.996;5.180;2023-05-07T03:34:47;18.70;71.60
70456;DHT22;57916;51.996;5.180;2023-05-07T03:37:15;18.70;71.40
70456;DHT22;57916;51.996;5.180;2023-05-07T03:39:42;18.70;71.50
70456;DHT22;57916;51.996;5.180;2023-05-07T03:42:09;18.70;71.40
70456;DHT22;57916;51.996;5.180;2023-05-07T03:44:37;18.70;71.40
70456;DHT22;57916;51.996;5.180;2023-05-07T03:47:04;18.60;71.50
70456;DHT22;57916;51.996;5.180;2023-05-07T03:49:31;18.60;71.60
70456;DHT22;57916;51.996;5.180;2023-05-07T03:51:59;18.60;71.60
70456;DHT22;57916;51.996;5.180;2023-05-07T03:54:26;18.60;71.60
70456;DHT22;57916;51.996;5.180;2023-05-07T03:56:53;18.60;71.70
70456;DHT22;57916;51.996;5.180;2023-05-07T03:59:20;18.50;71.90
70456;DHT22;57916;51.996;5.180;2023-05-07T04:01:48;18.50;72.00
70456;DHT22;57916;51.996;5.180;2023-05-07T04:04:18;18.50;72.30
70456;DHT22;57916;51.996;5.180;2023-05-07T04:06:45;18.50;72.50
70456;DHT22;57916;51.996;5.180;2023-05-07T04:09:12;18.40;72.70
70456;DHT22;57916;51.996;5.180;2023-05-07T04:11:40;18.40;72.80
70456;DHT22;57916;51.996;5.180;2023-05-07T04:14:09;18.50;72.90
70456;DHT22;57916;51.996;5.180;2023-05-07T04:16:36;18.50;72.70
70456;DHT22;57916;51.996;5.180;2023-05-07T04:19:03;18.50;72.60
70456;DHT22;57916;51.996;5.180;2023-05-07T04:21:31;18.50;72.50
70456;DHT22;57916;51.996;5.180;2023-05-07T04:23:58;18.50;72.60
70456;DHT22;57916;51.996;5.180;2023-05-07T04:26:25;18.50;72.60
70456;DHT22;57916;51.996;5.180;2023-05-07T04:28:52;18.50;72.60
70456;DHT22;57916;51.996;5.180;2023-05-07T04:31:19;18.60;72.70
70456;DHT22;57916;51.996;5.180;2023-05-07T04:33:50;18.60;72.60
70456;DHT22;57916;51.996;5.180;2023-05-07T04:36:18;18.60;72.50
70456;DHT22;57916;51.996;5.180;2023-05-07T04:38:55;18.60;72.60
70456;DHT22;57916;51.996;5.180;2023-05-07T04:41:22;18.60;72.70
70456;DHT22;57916;51.996;5.180;2023-05-07T04:43:49;18.60;72.60
70456;DHT22;57916;51.996;5.180;2023-05-07T04:46:18;18.60;72.60
70456;DHT22;57916;51.996;5.180;2023-05-07T04:48:47;18.70;72.50
70456;DHT22;57916;51.996;5.180;2023-05-07T04:51:13;18.70;72.50
70456;DHT22;57916;51.996;5.180;2023-05-07T04:53:40;18.70;72.40
70456;DHT22;57916;51.996;5.180;2023-05-07T04:56:08;18.70;72.30
70456;DHT22;57916;51.996;5.180;2023-05-07T04:58:41;18.70;72.40
70456;DHT22;57916;51.996;5.180;2023-05-07T05:01:09;18.70;72.50
70456;DHT22;57916;51.996;5.180;2023-05-07T05:03:38;18.70;72.50
70456;DHT22;57916;51.996;5.180;2023-05-07T05:06:06;18.70;73.40
70456;DHT22;57916;51.996;5.180;2023-05-07T05:08:34;18.70;72.50
70456;DHT22;57916;51.996;5.180;2023-05-07T05:11:02;18.80;72.60
70456;DHT22;57916;51.996;5.180;2023-05-07T05:13:32;18.90;72.50
70456;DHT22;57916;51.996;5.180;2023-05-07T05:16:01;18.90;72.10
70456;DHT22;57916;51.996;5.180;2023-05-07T05:18:31;18.90;72.10
70456;DHT22;57916;51.996;5.180;2023-05-07T05:20:57;18.90;71.90
70456;DHT22;57916;51.996;5.180;2023-05-07T05:23:25;19.00;71.90
70456;DHT22;57916;51.996;5.180;2023-05-07T05:25:56;19.00;72.00
70456;DHT22;57916;51.996;5.180;2023-05-07T05:28:29;19.00;72.10
70456;DHT22;57916;51.996;5.180;2023-05-07T05:30:56;19.00;72.10
70456;DHT22;57916;51.996;5.180;2023-05-07T05:33:26;19.00;71.90
70456;DHT22;57916;51.996;5.180;2023-05-07T05:35:55;19.00;71.70
70456;DHT22;57916;51.996;5.180;2023-05-07T05:38:22;18.90;71.90
70456;DHT22;57916;51.996;5.180;2023-05-07T05:40:50;18.90;71.90
70456;DHT22;57916;51.996;5.180;2023-05-07T05:43:17;18.90;72.20
70456;DHT22;57916;51.996;5.180;2023-05-07T05:45:44;18.90;72.30
70456;DHT22;57916;51.996;5.180;2023-05-07T05:48:11;18.80;72.40
70456;DHT22;57916;51.996;5.180;2023-05-07T05:50:39;18.80;72.60
70456;DHT22;57916;51.996;5.180;2023-05-07T05:53:06;18.80;72.70
70456;DHT22;57916;51.996;5.180;2023-05-07T05:55:34;18.80;72.70
70456;DHT22;57916;51.996;5.180;2023-05-07T05:58:01;18.80;72.60
70456;DHT22;57916;51.996;5.180;2023-05-07T06:00:30;18.80;72.60
70456;DHT22;57916;51.996;5.180;2023-05-07T06:03:02;18.70;72.50
70456;DHT22;57916;51.996;5.180;2023-05-07T06:05:29;18.70;72.80
70456;DHT22;57916;51.996;5.180;2023-05-07T06:07:56;18.70;73.10
70456;DHT22;57916;51.996;5.180;2023-05-07T06:10:25;18.70;72.80
70456;DHT22;57916;51.996;5.180;2023-05-07T06:12:54;18.70;73.00
70456;DHT22;57916;51.996;5.180;2023-05-07T06:15:21;18.70;73.10
70456;DHT22;57916;51.996;5.180;2023-05-07T06:17:49;18.70;73.20
70456;DHT22;57916;51.996;5.180;2023-05-07T06:20:16;18.70;73.60
70456;DHT22;57916;51.996;5.180;2023-05-07T06:22:44;18.80;73.70
70456;DHT22;57916;51.996;5.180;2023-05-07T06:25:13;18.80;73.90
70456;DHT22;57916;51.996;5.180;2023-05-07T06:27:41;18.80;74.20
70456;DHT22;57916;51.996;5.180;2023-05-07T06:30:08;18.80;74.40
70456;DHT22;57916;51.996;5.180;2023-05-07T06:32:36;18.80;74.30
70456;DHT22;57916;51.996;5.180;2023-05-07T06:35:04;18.80;74.20
70456;DHT22;57916;51.996;5.180;2023-05-07T06:37:34;18.80;74.20
70456;DHT22;57916;51.996;5.180;2023-05-07T06:40:05;18.80;74.40
70456;DHT22;57916;51.996;5.180;2023-05-07T06:42:36;18.80;74.30
70456;DHT22;57916;51.996;5.180;2023-05-07T06:45:21;18.70;74.70
70456;DHT22;57916;51.996;5.180;2023-05-07T06:47:48;18.80;74.60
70456;DHT22;57916;51.996;5.180;2023-05-07T06:50:15;18.80;74.50
70456;DHT22;57916;51.996;5.180;2023-05-07T06:52:44;18.80;74.60
70456;DHT22;57916;51.996;5.180;2023-05-07T06:55:11;18.80;74.40
70456;DHT22;57916;51.996;5.180;2023-05-07T06:57:38;18.80;74.50
70456;DHT22;57916;51.996;5.180;2023-05-07T07:00:05;18.80;74.40
70456;DHT22;57916;51.996;5.180;2023-05-07T07:02:45;18.90;74.30
70456;DHT22;57916;51.996;5.180;2023-05-07T07:05:14;18.90;74.20
70456;DHT22;57916;51.996;5.180;2023-05-07T07:07:41;18.90;74.40
70456;DHT22;57916;51.996;5.180;2023-05-07T07:10:09;18.80;74.20
70456;DHT22;57916;51.996;5.180;2023-05-07T07:12:37;18.90;74.30
70456;DHT22;57916;51.996;5.180;2023-05-07T07:15:04;18.90;74.30
70456;DHT22;57916;51.996;5.180;2023-05-07T07:17:31;19.00;74.30
70456;DHT22;57916;51.996;5.180;2023-05-07T07:19:58;19.10;74.60
70456;DHT22;57916;51.996;5.180;2023-05-07T07:22:25;19.10;74.40
70456;DHT22;57916;51.996;5.180;2023-05-07T07:24:52;19.10;74.30
70456;DHT22;57916;51.996;5.180;2023-05-07T07:27:19;19.20;74.70
70456;DHT22;57916;51.996;5.180;2023-05-07T07:29:46;19.20;74.60
70456;DHT22;57916;51.996;5.180;2023-05-07T07:32:13;19.20;74.30
70456;DHT22;57916;51.996;5.180;2023-05-07T07:34:40;19.20;74.30
70456;DHT22;57916;51.996;5.180;2023-05-07T07:37:08;19.30;73.90
70456;DHT22;57916;51.996;5.180;2023-05-07T07:39:36;19.30;74.00
70456;DHT22;57916;51.996;5.180;2023-05-07T07:42:06;19.30;74.00
70456;DHT22;57916;51.996;5.180;2023-05-07T07:44:33;19.40;74.10
70456;DHT22;57916;51.996;5.180;2023-05-07T07:47:05;19.50;74.10
70456;DHT22;57916;51.996;5.180;2023-05-07T07:49:32;19.50;74.00
70456;DHT22;57916;51.996;5.180;2023-05-07T07:52:03;19.50;73.80
70456;DHT22;57916;51.996;5.180;2023-05-07T07:54:32;19.60;74.30
70456;DHT22;57916;51.996;5.180;2023-05-07T07:56:59;19.60;74.10
70456;DHT22;57916;51.996;5.180;2023-05-07T07:59:31;19.60;74.10
70456;DHT22;57916;51.996;5.180;2023-05-07T08:01:58;19.60;74.80
70456;DHT22;57916;51.996;5.180;2023-05-07T08:04:27;19.60;74.20
70456;DHT22;57916;51.996;5.180;2023-05-07T08:06:56;19.60;74.00
70456;DHT22;57916;51.996;5.180;2023-05-07T08:09:23;19.70;74.30
70456;DHT22;57916;51.996;5.180;2023-05-07T08:11:51;19.70;74.40
70456;DHT22;57916;51.996;5.180;2023-05-07T08:14:18;19.80;74.50
70456;DHT22;57916;51.996;5.180;2023-05-07T08:16:47;19.80;74.50
70456;DHT22;57916;51.996;5.180;2023-05-07T08:19:14;19.80;74.10
70456;DHT22;57916;51.996;5.180;2023-05-07T08:21:41;19.70;74.10
70456;DHT22;57916;51.996;5.180;2023-05-07T08:24:10;19.70;74.20
70456;DHT22;57916;51.996;5.180;2023-05-07T08:26:39;19.70;74.00
70456;DHT22;57916;51.996;5.180;2023-05-07T08:29:08;19.60;73.80
70456;DHT22;57916;51.996;5.180;2023-05-07T08:31:34;19.60;74.40
70456;DHT22;57916;51.996;5.180;2023-05-07T08:34:03;19.60;74.60
70456;DHT22;57916;51.996;5.180;2023-05-07T08:36:30;19.60;74.70
70456;DHT22;57916;51.996;5.180;2023-05-07T08:38:57;19.60;75.30
70456;DHT22;57916;51.996;5.180;2023-05-07T08:41:24;19.60;75.70
70456;DHT22;57916;51.996;5.180;2023-05-07T08:43:51;19.70;76.00
70456;DHT22;57916;51.996;5.180;2023-05-07T08:46:20;19.80;76.10
70456;DHT22;57916;51.996;5.180;2023-05-07T08:48:49;19.90;75.40
70456;DHT22;57916;51.996;5.180;2023-05-07T08:51:18;20.00;76.20
70456;DHT22;57916;51.996;5.180;2023-05-07T08:53:48;20.00;75.80
70456;DHT22;57916;51.996;5.180;2023-05-07T08:56:21;20.20;76.70
70456;DHT22;57916;51.996;5.180;2023-05-07T08:58:50;20.50;75.60
70456;DHT22;57916;51.996;5.180;2023-05-07T09:01:18;20.70;75.30
70456;DHT22;57916;51.996;5.180;2023-05-07T09:03:50;21.00;73.30
70456;DHT22;57916;51.996;5.180;2023-05-07T09:06:18;21.30;70.90
70456;DHT22;57916;51.996;5.180;2023-05-07T09:08:55;21.40;69.60
70456;DHT22;57916;51.996;5.180;2023-05-07T09:11:25;21.60;70.30
70456;DHT22;57916;51.996;5.180;2023-05-07T09:13:55;21.60;69.80
70456;DHT22;57916;51.996;5.180;2023-05-07T09:16:24;21.70;69.90
70456;DHT22;57916;51.996;5.180;2023-05-07T09:18:53;21.80;69.20
70456;DHT22;57916;51.996;5.180;2023-05-07T09:21:22;21.80;68.10
70456;DHT22;57916;51.996;5.180;2023-05-07T09:23:53;21.90;68.40
70456;DHT22;57916;51.996;5.180;2023-05-07T09:26:25;21.80;69.20
70456;DHT22;57916;51.996;5.180;2023-05-07T09:28:55;21.80;69.20
70456;DHT22;57916;51.996;5.180;2023-05-07T09:31:22;21.90;68.80
70456;DHT22;57916;51.996;5.180;2023-05-07T09:33:52;21.90;68.90
70456;DHT22;57916;51.996;5.180;2023-05-07T09:36:20;22.00;68.90
70456;DHT22;57916;51.996;5.180;2023-05-07T09:38:48;22.10;69.70
70456;DHT22;57916;51.996;5.180;2023-05-07T09:41:18;22.20;68.50
70456;DHT22;57916;51.996;5.180;2023-05-07T09:44:05;22.30;69.90
70456;DHT22;57916;51.996;5.180;2023-05-07T09:46:39;22.50;68.40
70456;DHT22;57916;51.996;5.180;2023-05-07T09:49:23;22.60;66.80
70456;DHT22;57916;51.996;5.180;2023-05-07T09:51:59;22.60;65.40
70456;DHT22;57916;51.996;5.180;2023-05-07T09:54:28;22.60;65.10
70456;DHT22;57916;51.996;5.180;2023-05-07T09:56:57;22.50;65.80
70456;DHT22;57916;51.996;5.180;2023-05-07T09:59:28;22.50;65.30
70456;DHT22;57916;51.996;5.180;2023-05-07T10:01:59;22.50;65.50
70456;DHT22;57916;51.996;5.180;2023-05-07T10:04:31;22.40;66.50
70456;DHT22;57916;51.996;5.180;2023-05-07T10:06:59;22.40;66.40
70456;DHT22;57916;51.996;5.180;2023-05-07T10:09:26;22.50;66.40
70456;DHT22;57916;51.996;5.180;2023-05-07T10:11:54;22.50;66.30
70456;DHT22;57916;51.996;5.180;2023-05-07T10:14:21;22.50;66.20
70456;DHT22;57916;51.996;5.180;2023-05-07T10:16:49;22.50;67.70
70456;DHT22;57916;51.996;5.180;2023-05-07T10:19:17;22.50;67.00
70456;DHT22;57916;51.996;5.180;2023-05-07T10:21:55;22.60;67.00
70456;DHT22;57916;51.996;5.180;2023-05-07T10:24:26;22.60;66.40
70456;DHT22;57916;51.996;5.180;2023-05-07T10:26:57;22.60;67.30
70456;DHT22;57916;51.996;5.180;2023-05-07T10:35:02;23.10;63.20
70456;DHT22;57916;51.996;5.180;2023-05-07T10:37:30;23.10;61.50
70456;DHT22;57916;51.996;5.180;2023-05-07T10:39:57;23.20;60.60
70456;DHT22;57916;51.996;5.180;2023-05-07T10:42:26;23.30;60.60
70456;DHT22;57916;51.996;5.180;2023-05-07T10:44:55;23.40;60.70
70456;DHT22;57916;51.996;5.180;2023-05-07T10:47:26;23.50;61.50
70456;DHT22;57916;51.996;5.180;2023-05-07T10:52:38;23.80;59.50
70456;DHT22;57916;51.996;5.180;2023-05-07T10:57:52;23.80;59.50
70456;DHT22;57916;51.996;5.180;2023-05-07T11:03:10;23.90;59.90
70456;DHT22;57916;51.996;5.180;2023-05-07T11:05:43;24.10;60.20
70456;DHT22;57916;51.996;5.180;2023-05-07T11:08:22;24.10;58.40
70456;DHT22;57916;51.996;5.180;2023-05-07T11:11:06;24.20;59.60
70456;DHT22;57916;51.996;5.180;2023-05-07T11:13:43;24.30;58.70
70456;DHT22;57916;51.996;5.180;2023-05-07T11:16:34;24.30;58.60
70456;DHT22;57916;51.996;5.180;2023-05-07T11:19:51;24.30;58.40
70456;DHT22;57916;51.996;5.180;2023-05-07T11:25:34;24.30;56.80
70456;DHT22;57916;51.996;5.180;2023-05-07T11:28:13;24.10;56.80
70456;DHT22;57916;51.996;5.180;2023-05-07T11:30:52;24.10;56.80
70456;DHT22;57916;51.996;5.180;2023-05-07T11:33:20;24.10;56.90
70456;DHT22;57916;51.996;5.180;2023-05-07T11:35:49;24.10;57.10
70456;DHT22;57916;51.996;5.180;2023-05-07T11:38:19;24.10;56.90
70456;DHT22;57916;51.996;5.180;2023-05-07T11:40:54;24.10;57.50
70456;DHT22;57916;51.996;5.180;2023-05-07T11:43:22;24.10;57.40
70456;DHT22;57916;51.996;5.180;2023-05-07T11:45:50;24.20;57.50
70456;DHT22;57916;51.996;5.180;2023-05-07T11:48:17;24.30;57.40
70456;DHT22;57916;51.996;5.180;2023-05-07T11:50:51;24.50;55.80
70456;DHT22;57916;51.996;5.180;2023-05-07T11:53:25;24.50;54.80
70456;DHT22;57916;51.996;5.180;2023-05-07T11:55:52;24.50;54.60
70456;DHT22;57916;51.996;5.180;2023-05-07T11:58:24;24.50;53.40
70456;DHT22;57916;51.996;5.180;2023-05-07T12:00:52;24.50;52.00
70456;DHT22;57916;51.996;5.180;2023-05-07T12:03:19;24.50;53.40
70456;DHT22;57916;51.996;5.180;2023-05-07T12:05:47;24.50;52.30
70456;DHT22;57916;51.996;5.180;2023-05-07T12:08:18;24.50;55.40
70456;DHT22;57916;51.996;5.180;2023-05-07T12:10:48;24.50;53.10
70456;DHT22;57916;51.996;5.180;2023-05-07T12:13:17;24.50;53.50
70456;DHT22;57916;51.996;5.180;2023-05-07T12:15:44;24.60;52.90
70456;DHT22;57916;51.996;5.180;2023-05-07T12:18:12;24.60;51.40
70456;DHT22;57916;51.996;5.180;2023-05-07T12:20:39;24.60;51.60
70456;DHT22;57916;51.996;5.180;2023-05-07T12:23:06;24.70;50.40
70456;DHT22;57916;51.996;5.180;2023-05-07T12:25:38;24.70;49.90
70456;DHT22;57916;51.996;5.180;2023-05-07T12:28:07;24.70;49.60
70456;DHT22;57916;51.996;5.180;2023-05-07T12:30:38;24.60;50.00
70456;DHT22;57916;51.996;5.180;2023-05-07T12:33:05;24.60;50.60
70456;DHT22;57916;51.996;5.180;2023-05-07T12:35:40;24.60;50.50
70456;DHT22;57916;51.996;5.180;2023-05-07T12:38:12;24.70;49.70
70456;DHT22;57916;51.996;5.180;2023-05-07T12:40:50;24.70;50.50
70456;DHT22;57916;51.996;5.180;2023-05-07T12:43:25;24.60;49.60
70456;DHT22;57916;51.996;5.180;2023-05-07T12:45:54;24.60;50.20
70456;DHT22;57916;51.996;5.180;2023-05-07T12:48:23;24.60;50.80
70456;DHT22;57916;51.996;5.180;2023-05-07T12:50:51;24.60;50.30
70456;DHT22;57916;51.996;5.180;2023-05-07T12:53:21;24.60;51.00
70456;DHT22;57916;51.996;5.180;2023-05-07T12:55:50;24.60;51.00
70456;DHT22;57916;51.996;5.180;2023-05-07T13:00:52;24.50;51.30
70456;DHT22;57916;51.996;5.180;2023-05-07T13:03:29;24.50;50.50
70456;DHT22;57916;51.996;5.180;2023-05-07T13:06:08;24.40;51.20
70456;DHT22;57916;51.996;5.180;2023-05-07T13:08:41;24.40;52.80
70456;DHT22;57916;51.996;5.180;2023-05-07T13:11:10;24.30;53.00
70456;DHT22;57916;51.996;5.180;2023-05-07T13:13:39;24.30;53.00
70456;DHT22;57916;51.996;5.180;2023-05-07T13:16:08;24.30;52.80
70456;DHT22;57916;51.996;5.180;2023-05-07T13:18:37;24.30;52.00
70456;DHT22;57916;51.996;5.180;2023-05-07T13:21:04;24.30;53.50
70456;DHT22;57916;51.996;5.180;2023-05-07T13:23:31;24.30;53.00
70456;DHT22;57916;51.996;5.180;2023-05-07T13:25:58;24.20;52.70
70456;DHT22;57916;51.996;5.180;2023-05-07T13:28:29;24.20;53.40
70456;DHT22;57916;51.996;5.180;2023-05-07T13:30:56;24.20;53.10
70456;DHT22;57916;51.996;5.180;2023-05-07T13:33:23;24.30;52.80
70456;DHT22;57916;51.996;5.180;2023-05-07T13:35:50;24.20;53.30
70456;DHT22;57916;51.996;5.180;2023-05-07T13:38:17;24.30;53.10
70456;DHT22;57916;51.996;5.180;2023-05-07T13:40:44;24.30;52.90
70456;DHT22;57916;51.996;5.180;2023-05-07T13:43:11;24.30;53.90
70456;DHT22;57916;51.996;5.180;2023-05-07T13:45:38;24.30;54.40
70456;DHT22;57916;51.996;5.180;2023-05-07T13:48:05;24.30;54.90
70456;DHT22;57916;51.996;5.180;2023-05-07T13:50:32;24.30;54.80
70456;DHT22;57916;51.996;5.180;2023-05-07T13:52:59;24.30;54.30
70456;DHT22;57916;51.996;5.180;2023-05-07T13:55:28;24.30;54.20
70456;DHT22;57916;51.996;5.180;2023-05-07T13:58:00;24.30;55.10
70456;DHT22;57916;51.996;5.180;2023-05-07T14:00:28;24.30;55.00
70456;DHT22;57916;51.996;5.180;2023-05-07T14:02:55;24.30;54.50
70456;DHT22;57916;51.996;5.180;2023-05-07T14:05:23;24.40;54.20
70456;DHT22;57916;51.996;5.180;2023-05-07T14:07:51;24.30;54.20
70456;DHT22;57916;51.996;5.180;2023-05-07T14:10:18;24.30;54.30
70456;DHT22;57916;51.996;5.180;2023-05-07T14:12:46;24.30;55.10
70456;DHT22;57916;51.996;5.180;2023-05-07T14:15:14;24.30;55.70
70456;DHT22;57916;51.996;5.180;2023-05-07T14:17:43;24.40;56.90
70456;DHT22;57916;51.996;5.180;2023-05-07T14:20:11;24.50;56.10
70456;DHT22;57916;51.996;5.180;2023-05-07T14:22:39;24.60;55.70
70456;DHT22;57916;51.996;5.180;2023-05-07T14:25:07;24.60;56.10
70456;DHT22;57916;51.996;5.180;2023-05-07T14:27:34;24.60;57.30
70456;DHT22;57916;51.996;5.180;2023-05-07T14:30:01;24.60;57.40
70456;DHT22;57916;51.996;5.180;2023-05-07T14:32:28;24.70;58.00
70456;DHT22;57916;51.996;5.180;2023-05-07T14:34:55;24.70;57.40
70456;DHT22;57916;51.996;5.180;2023-05-07T14:37:23;24.70;56.50
70456;DHT22;57916;51.996;5.180;2023-05-07T14:39:50;24.70;57.00
70456;DHT22;57916;51.996;5.180;2023-05-07T14:42:17;24.70;57.40
70456;DHT22;57916;51.996;5.180;2023-05-07T14:44:46;24.70;56.90
70456;DHT22;57916;51.996;5.180;2023-05-07T14:47:14;24.80;56.40
70456;DHT22;57916;51.996;5.180;2023-05-07T14:49:45;24.80;57.20
70456;DHT22;57916;51.996;5.180;2023-05-07T14:52:12;24.80;58.00
70456;DHT22;57916;51.996;5.180;2023-05-07T14:54:39;24.80;57.60
70456;DHT22;57916;51.996;5.180;2023-05-07T14:57:08;24.90;57.70
70456;DHT22;57916;51.996;5.180;2023-05-07T14:59:37;24.80;57.30
70456;DHT22;57916;51.996;5.180;2023-05-07T15:02:05;24.80;56.80
70456;DHT22;57916;51.996;5.180;2023-05-07T15:04:35;24.70;56.90
70456;DHT22;57916;51.996;5.180;2023-05-07T15:07:02;24.60;57.50
70456;DHT22;57916;51.996;5.180;2023-05-07T15:09:29;24.50;56.80
70456;DHT22;57916;51.996;5.180;2023-05-07T15:11:56;24.50;57.50
70456;DHT22;57916;51.996;5.180;2023-05-07T15:14:23;24.40;57.70
70456;DHT22;57916;51.996;5.180;2023-05-07T15:16:50;24.30;58.00
70456;DHT22;57916;51.996;5.180;2023-05-07T15:19:17;24.30;58.00
70456;DHT22;57916;51.996;5.180;2023-05-07T15:21:44;24.20;58.40
70456;DHT22;57916;51.996;5.180;2023-05-07T15:24:11;24.10;58.80
70456;DHT22;57916;51.996;5.180;2023-05-07T15:26:39;24.10;60.20
70456;DHT22;57916;51.996;5.180;2023-05-07T15:29:06;24.10;60.20
70456;DHT22;57916;51.996;5.180;2023-05-07T15:31:37;24.10;60.10
70456;DHT22;57916;51.996;5.180;2023-05-07T15:34:07;24.10;60.20
70456;DHT22;57916;51.996;5.180;2023-05-07T15:36:34;24.10;58.90
70456;DHT22;57916;51.996;5.180;2023-05-07T15:39:01;24.10;58.90
70456;DHT22;57916;51.996;5.180;2023-05-07T15:41:29;24.10;58.60
70456;DHT22;57916;51.996;5.180;2023-05-07T15:43:56;24.10;59.90
70456;DHT22;57916;51.996;5.180;2023-05-07T15:46:24;24.10;59.40
70456;DHT22;57916;51.996;5.180;2023-05-07T15:48:52;24.10;59.10
70456;DHT22;57916;51.996;5.180;2023-05-07T15:51:19;24.20;58.90
70456;DHT22;57916;51.996;5.180;2023-05-07T15:53:47;24.10;58.80
70456;DHT22;57916;51.996;5.180;2023-05-07T15:56:14;24.10;59.30
70456;DHT22;57916;51.996;5.180;2023-05-07T15:58:41;24.10;59.50
70456;DHT22;57916;51.996;5.180;2023-05-07T16:01:08;24.10;59.70